createdAt,value
2022-11-24T00:00:55.271Z,5.80
2022-11-24T00:01:55.298Z,5.77
2022-11-24T00:02:55.380Z,5.75
2022-11-24T00:03:55.247Z,5.73
2022-11-24T00:04:55.227Z,5.70
2022-11-24T00:05:55.226Z,5.73
2022-11-24T00:06:55.215Z,5.73
2022-11-24T00:07:55.264Z,5.70
2022-11-24T00:08:55.184Z,5.69
2022-11-24T00:09:55.171Z,5.69
2022-11-24T00:10:55.166Z,5.67
2022-11-24T00:11:55.166Z,5.69
2022-11-24T00:12:55.143Z,5.70
2022-11-24T00:13:55.134Z,5.69
2022-11-24T00:14:55.124Z,5.73
2022-11-24T00:15:55.109Z,5.73
2022-11-24T00:16:55.166Z,5.73
2022-11-24T00:17:55.113Z,5.73
2022-11-24T00:18:55.080Z,5.70
2022-11-24T00:19:55.063Z,5.70
2022-11-24T00:20:55.056Z,5.69
2022-11-24T00:21:55.051Z,5.67
2022-11-24T00:22:55.038Z,5.66
2022-11-24T00:23:55.016Z,5.69
2022-11-24T00:24:55.011Z,5.67
2022-11-24T00:25:55.005Z,5.66
2022-11-24T00:26:54.992Z,5.67
2022-11-24T00:27:54.977Z,5.65
2022-11-24T00:28:54.960Z,5.63
2022-11-24T00:29:54.955Z,5.65
2022-11-24T00:30:54.973Z,5.63
2022-11-24T00:31:54.947Z,5.66
2022-11-24T00:32:54.919Z,5.70
2022-11-24T00:33:54.923Z,5.73
2022-11-24T00:34:54.895Z,5.70
2022-11-24T00:35:54.888Z,5.70
2022-11-24T00:36:54.908Z,5.67
2022-11-24T00:37:54.869Z,5.69
2022-11-24T00:38:54.863Z,5.70
2022-11-24T00:39:54.846Z,5.70
2022-11-24T00:40:54.835Z,5.69
2022-11-24T00:41:54.827Z,5.69
2022-11-24T00:42:54.816Z,5.69
2022-11-24T00:43:54.812Z,5.69
2022-11-24T00:44:54.784Z,5.67
2022-11-24T00:45:54.979Z,5.73
2022-11-24T00:46:54.872Z,5.74
2022-11-24T00:47:54.781Z,5.74
2022-11-24T00:48:54.745Z,5.74
2022-11-24T00:49:54.735Z,5.74
2022-11-24T00:50:54.719Z,5.73
2022-11-24T00:51:54.718Z,5.74
2022-11-24T00:52:54.710Z,5.77
2022-11-24T00:53:54.694Z,5.75
2022-11-24T00:54:54.674Z,5.74
2022-11-24T00:55:54.668Z,5.74
2022-11-24T00:56:54.657Z,5.75
2022-11-24T00:57:54.670Z,5.74
2022-11-24T00:58:54.632Z,5.69
2022-11-24T00:59:54.624Z,5.67
2022-11-24T01:00:54.612Z,5.67
2022-11-24T01:01:54.672Z,5.67
2022-11-24T01:02:54.679Z,5.70
2022-11-24T01:03:54.581Z,5.74
2022-11-24T01:04:54.572Z,5.73
2022-11-24T01:05:54.560Z,5.75
2022-11-24T01:06:54.546Z,5.77
2022-11-24T01:07:54.650Z,5.80
2022-11-24T01:08:54.533Z,5.81
2022-11-24T01:09:54.514Z,5.83
2022-11-24T01:10:54.501Z,5.85
2022-11-24T01:11:54.522Z,5.87
2022-11-24T01:12:54.487Z,5.88
2022-11-24T01:13:54.469Z,5.92
2022-11-24T01:14:54.454Z,5.95
2022-11-24T01:15:54.505Z,5.95
2022-11-24T01:16:54.437Z,5.98
2022-11-24T01:17:54.441Z,5.99
2022-11-24T01:18:54.410Z,6.01
2022-11-24T01:19:54.404Z,6.02
2022-11-24T01:20:54.388Z,6.05
2022-11-24T01:21:54.386Z,6.03
2022-11-24T01:22:54.374Z,6.06
2022-11-24T01:23:54.358Z,6.06
2022-11-24T01:24:54.345Z,6.05
2022-11-24T01:25:54.338Z,6.03
2022-11-24T01:26:54.326Z,6.01
2022-11-24T01:27:54.327Z,6.06
2022-11-24T01:28:54.301Z,6.06
2022-11-24T01:29:54.295Z,6.05
2022-11-24T01:30:54.311Z,6.03
2022-11-24T01:31:54.271Z,6.06
2022-11-24T01:32:54.269Z,6.06
2022-11-24T01:33:54.252Z,6.06
2022-11-24T01:34:54.237Z,6.11
2022-11-24T01:35:54.229Z,6.14
2022-11-24T01:36:54.211Z,6.16
2022-11-24T01:37:54.227Z,6.19
2022-11-24T01:38:54.192Z,6.21
2022-11-24T01:39:54.183Z,6.25
2022-11-24T01:40:54.171Z,6.32
2022-11-24T01:41:54.164Z,6.38
2022-11-24T01:42:54.150Z,6.36
2022-11-24T01:43:54.153Z,6.36
2022-11-24T01:44:54.122Z,6.36
2022-11-24T01:45:54.184Z,6.38
2022-11-24T01:46:54.100Z,6.39
2022-11-24T01:47:54.092Z,6.42
2022-11-24T01:48:54.095Z,6.46
2022-11-24T01:49:54.076Z,6.48
2022-11-24T01:50:54.058Z,6.51
2022-11-24T01:51:54.051Z,6.50
2022-11-24T01:52:54.033Z,6.46
2022-11-24T01:53:54.038Z,6.45
2022-11-24T01:54:54.011Z,6.48
2022-11-24T01:55:54.017Z,6.48
2022-11-24T01:56:53.990Z,6.50
2022-11-24T01:57:53.983Z,6.50
2022-11-24T01:58:53.977Z,6.48
2022-11-24T01:59:53.961Z,6.48
2022-11-24T02:00:53.945Z,6.48
2022-11-24T02:01:53.989Z,6.51
2022-11-24T02:02:53.967Z,6.53
2022-11-24T02:03:53.930Z,6.51
2022-11-24T02:04:53.902Z,6.55
2022-11-24T02:05:53.896Z,6.57
2022-11-24T02:06:53.878Z,6.58
2022-11-24T02:07:53.966Z,6.55
2022-11-24T02:08:53.867Z,6.54
2022-11-24T02:09:53.851Z,6.55
2022-11-24T02:10:53.839Z,6.54
2022-11-24T02:11:53.831Z,6.55
2022-11-24T02:12:53.815Z,6.57
2022-11-24T02:13:53.816Z,6.60
2022-11-24T02:14:53.791Z,6.60
2022-11-24T02:15:53.794Z,6.57
2022-11-24T02:16:53.770Z,6.54
2022-11-24T02:17:53.761Z,6.50
2022-11-24T02:18:53.770Z,6.54
2022-11-24T02:19:53.741Z,6.53
2022-11-24T02:20:53.726Z,6.54
2022-11-24T02:21:53.734Z,6.53
2022-11-24T02:22:53.705Z,6.53
2022-11-24T02:23:53.707Z,6.57
2022-11-24T02:24:53.682Z,6.61
2022-11-24T02:25:53.674Z,6.63
2022-11-24T02:26:53.659Z,6.60
2022-11-24T02:27:54.284Z,6.60
2022-11-24T02:28:53.647Z,6.61
2022-11-24T02:29:53.633Z,6.58
2022-11-24T02:30:53.685Z,6.63
2022-11-24T02:31:53.615Z,6.65
2022-11-24T02:32:53.594Z,6.68
2022-11-24T02:33:53.602Z,6.69
2022-11-24T02:34:53.577Z,6.68
2022-11-24T02:35:53.568Z,6.69
2022-11-24T02:36:53.552Z,6.69
2022-11-24T02:37:53.553Z,6.69
2022-11-24T02:38:53.539Z,6.68
2022-11-24T02:39:53.522Z,6.64
2022-11-24T02:40:53.510Z,6.65
2022-11-24T02:41:53.500Z,6.68
2022-11-24T02:42:53.487Z,6.64
2022-11-24T02:43:53.494Z,6.61
2022-11-24T02:44:53.465Z,6.58
2022-11-24T02:45:53.530Z,6.57
2022-11-24T02:46:53.460Z,6.57
2022-11-24T02:47:53.437Z,6.55
2022-11-24T02:48:53.443Z,6.55
2022-11-24T02:49:53.411Z,6.53
2022-11-24T02:50:53.396Z,6.50
2022-11-24T02:51:53.388Z,6.48
2022-11-24T02:52:53.481Z,6.45
2022-11-24T02:53:53.384Z,6.45
2022-11-24T02:54:53.355Z,6.45
2022-11-24T02:55:53.354Z,6.46
2022-11-24T02:56:53.330Z,6.48
2022-11-24T02:57:53.324Z,6.46
2022-11-24T02:58:53.330Z,6.45
2022-11-24T02:59:53.308Z,6.43
2022-11-24T03:00:53.288Z,6.43
2022-11-24T03:01:53.365Z,6.43
2022-11-24T03:02:53.314Z,6.50
2022-11-24T03:03:53.266Z,6.50
2022-11-24T03:04:53.305Z,6.51
2022-11-24T03:05:53.243Z,6.51
2022-11-24T03:06:53.234Z,6.54
2022-11-24T03:07:53.316Z,6.60
2022-11-24T03:08:53.211Z,6.63
2022-11-24T03:09:53.185Z,6.63
2022-11-24T03:10:53.180Z,6.68
2022-11-24T03:11:53.186Z,6.69
2022-11-24T03:12:53.174Z,6.72
2022-11-24T03:13:53.160Z,6.76
2022-11-24T03:14:53.148Z,6.82
2022-11-24T03:15:53.156Z,6.91
2022-11-24T03:16:53.239Z,6.97
2022-11-24T03:17:53.100Z,6.99
2022-11-24T03:18:53.099Z,6.99
2022-11-24T03:19:53.090Z,7.01
2022-11-24T03:20:53.078Z,7.08
2022-11-24T03:21:53.068Z,7.11
2022-11-24T03:22:53.052Z,7.12
2022-11-24T03:23:53.036Z,7.14
2022-11-24T03:24:53.041Z,7.15
2022-11-24T03:25:53.013Z,7.19
2022-11-24T03:26:53.031Z,7.21
2022-11-24T03:27:52.993Z,7.27
2022-11-24T03:28:52.987Z,7.33
2022-11-24T03:29:52.985Z,7.36
2022-11-24T03:30:53.016Z,7.42
2022-11-24T03:31:53.039Z,7.47
2022-11-24T03:32:53.036Z,7.47
2022-11-24T03:33:52.927Z,7.48
2022-11-24T03:34:52.930Z,7.48
2022-11-24T03:35:52.915Z,7.45
2022-11-24T03:36:52.899Z,7.45
2022-11-24T03:37:52.885Z,7.44
2022-11-24T03:38:52.876Z,7.41
2022-11-24T03:39:52.878Z,7.37
2022-11-24T03:40:52.855Z,7.34
2022-11-24T03:41:52.867Z,7.30
2022-11-24T03:42:52.836Z,7.26
2022-11-24T03:43:52.817Z,7.24
2022-11-24T03:44:52.824Z,7.21
2022-11-24T03:45:52.796Z,7.18
2022-11-24T03:46:52.792Z,7.15
2022-11-24T03:47:52.774Z,7.12
2022-11-24T03:48:52.772Z,7.09
2022-11-24T03:49:52.763Z,7.08
2022-11-24T03:50:52.748Z,7.05
2022-11-24T03:51:52.731Z,7.05
2022-11-24T03:52:52.723Z,7.05
2022-11-24T03:53:52.713Z,7.05
2022-11-24T03:54:52.715Z,7.01
2022-11-24T03:55:52.686Z,7.01
2022-11-24T03:56:52.681Z,7.04
2022-11-24T03:57:52.669Z,7.04
2022-11-24T03:58:52.661Z,7.07
2022-11-24T03:59:52.653Z,7.09
2022-11-24T04:00:52.638Z,7.14
2022-11-24T04:01:52.673Z,7.14
2022-11-24T04:02:52.718Z,7.14
2022-11-24T04:03:52.599Z,7.15
2022-11-24T04:04:52.625Z,7.16
2022-11-24T04:05:52.576Z,7.19
2022-11-24T04:06:52.572Z,7.21
2022-11-24T04:07:52.639Z,7.21
2022-11-24T04:08:52.551Z,7.23
2022-11-24T04:09:52.536Z,7.24
2022-11-24T04:10:52.539Z,7.23
2022-11-24T04:11:52.511Z,7.21
2022-11-24T04:12:52.506Z,7.23
2022-11-24T04:13:52.490Z,7.21
2022-11-24T04:14:52.482Z,7.23
2022-11-24T04:15:52.556Z,7.26
2022-11-24T04:16:52.463Z,7.26
2022-11-24T04:17:52.449Z,7.24
2022-11-24T04:18:52.439Z,7.24
2022-11-24T04:19:52.424Z,7.19
2022-11-24T04:20:52.433Z,7.18
2022-11-24T04:21:52.402Z,7.12
2022-11-24T04:22:52.397Z,7.11
2022-11-24T04:23:52.382Z,7.07
2022-11-24T04:24:52.375Z,7.04
2022-11-24T04:25:52.369Z,7.04
2022-11-24T04:26:52.359Z,7.00
2022-11-24T04:27:52.336Z,6.99
2022-11-24T04:28:52.329Z,6.97
2022-11-24T04:29:52.316Z,6.96
2022-11-24T04:30:52.358Z,6.96
2022-11-24T04:31:52.328Z,6.96
2022-11-24T04:32:52.287Z,6.96
2022-11-24T04:33:52.273Z,6.96
2022-11-24T04:34:52.265Z,6.97
2022-11-24T04:35:52.260Z,6.97
2022-11-24T04:36:52.247Z,6.97
2022-11-24T04:37:52.229Z,6.96
2022-11-24T04:39:24.292Z,6.96
2022-11-24T04:39:52.258Z,6.96
2022-11-24T04:40:52.219Z,6.97
2022-11-24T04:41:52.192Z,6.96
2022-11-24T04:42:52.173Z,6.96
2022-11-24T04:43:52.169Z,6.91
2022-11-24T04:44:52.155Z,6.91
2022-11-24T04:45:52.155Z,6.93
2022-11-24T04:46:52.183Z,6.93
2022-11-24T04:47:52.188Z,6.93
2022-11-24T04:48:52.124Z,6.93
2022-11-24T04:49:52.101Z,6.97
2022-11-24T04:50:52.097Z,6.99
2022-11-24T04:51:52.082Z,7.05
2022-11-24T04:52:52.065Z,7.07
2022-11-24T04:53:52.059Z,7.07
2022-11-24T04:54:52.045Z,7.09
2022-11-24T04:55:52.049Z,7.12
2022-11-24T04:56:52.036Z,7.15
2022-11-24T04:57:52.023Z,7.18
2022-11-24T04:58:51.999Z,7.24
2022-11-24T04:59:51.992Z,7.29
2022-11-24T05:00:52.001Z,7.30
2022-11-24T05:01:52.078Z,7.32
2022-11-24T05:02:51.954Z,7.32
2022-11-24T05:03:52.010Z,7.33
2022-11-24T05:04:51.934Z,7.33
2022-11-24T05:05:51.938Z,7.34
2022-11-24T05:06:51.913Z,7.34
2022-11-24T05:07:52.022Z,7.34
2022-11-24T05:08:51.891Z,7.33
2022-11-24T05:09:59.416Z,7.32
2022-11-24T05:10:51.895Z,7.32
2022-11-24T05:11:51.861Z,7.30
2022-11-24T05:12:51.856Z,7.27
2022-11-24T05:13:51.840Z,7.27
2022-11-24T05:14:51.826Z,7.27
2022-11-24T05:15:51.961Z,7.29
2022-11-24T05:16:51.809Z,7.27
2022-11-24T05:17:51.795Z,7.27
2022-11-24T05:18:51.790Z,7.29
2022-11-24T05:19:51.776Z,7.27
2022-11-24T05:20:51.774Z,7.27
2022-11-24T05:21:51.752Z,7.26
2022-11-24T05:22:51.755Z,7.23
2022-11-24T05:23:51.735Z,7.23
2022-11-24T05:24:51.717Z,7.23
2022-11-24T05:25:51.722Z,7.21
2022-11-24T05:26:51.693Z,7.23
2022-11-24T05:27:51.687Z,7.19
2022-11-24T05:28:51.672Z,7.16
2022-11-24T05:29:51.663Z,7.16
2022-11-24T05:30:51.660Z,7.15
2022-11-24T05:31:51.705Z,7.15
2022-11-24T05:32:51.630Z,7.15
2022-11-24T05:33:51.622Z,7.18
2022-11-24T05:34:51.609Z,7.21
2022-11-24T05:35:51.614Z,7.23
2022-11-24T05:36:51.586Z,7.26
2022-11-24T05:37:51.579Z,7.29
2022-11-24T05:38:51.563Z,7.27
2022-11-24T05:39:51.562Z,7.29
2022-11-24T05:40:51.551Z,7.27
2022-11-24T05:41:51.535Z,7.29
2022-11-24T05:42:51.524Z,7.32
2022-11-24T05:43:51.510Z,7.33
2022-11-24T05:44:51.501Z,7.33
2022-11-24T05:45:51.503Z,7.34
2022-11-24T05:46:51.502Z,7.37
2022-11-24T05:47:51.484Z,7.44
2022-11-24T05:48:51.454Z,7.48
2022-11-24T05:49:51.448Z,7.50
2022-11-24T05:50:51.445Z,7.51
2022-11-24T05:51:51.487Z,7.52
2022-11-24T05:52:51.409Z,7.54
2022-11-24T05:53:51.410Z,7.54
2022-11-24T05:54:51.391Z,7.52
2022-11-24T05:55:51.391Z,7.54
2022-11-24T05:56:51.371Z,7.57
2022-11-24T05:57:51.361Z,7.58
2022-11-24T05:58:51.344Z,7.58
2022-11-24T05:59:51.340Z,7.60
2022-11-24T06:00:51.331Z,7.60
2022-11-24T06:01:51.417Z,7.60
2022-11-24T06:02:51.389Z,7.62
2022-11-24T06:03:51.294Z,7.67
2022-11-24T06:04:51.280Z,7.67
2022-11-24T06:05:51.292Z,7.69
2022-11-24T06:06:51.256Z,7.70
2022-11-24T06:07:51.367Z,7.73
2022-11-24T06:08:51.235Z,7.74
2022-11-24T06:09:51.225Z,7.76
2022-11-24T06:10:51.230Z,7.77
2022-11-24T06:11:51.203Z,7.76
2022-11-24T06:12:51.195Z,7.77
2022-11-24T06:13:51.253Z,7.76
2022-11-24T06:14:51.172Z,7.76
2022-11-24T06:15:51.181Z,7.76
2022-11-24T06:16:51.217Z,7.73
2022-11-24T06:17:51.141Z,7.73
2022-11-24T06:18:51.130Z,7.74
2022-11-24T06:19:51.114Z,7.71
2022-11-24T06:21:09.506Z,7.71
2022-11-24T06:21:51.097Z,7.71
2022-11-24T06:22:51.083Z,7.73
2022-11-24T06:23:51.070Z,7.71
2022-11-24T06:24:51.063Z,7.74
2022-11-24T06:25:51.730Z,7.76
2022-11-24T06:26:51.041Z,7.76
2022-11-24T06:27:51.032Z,7.76
2022-11-24T06:28:51.020Z,7.74
2022-11-24T06:29:51.006Z,7.74
2022-11-24T06:30:51.002Z,7.76
2022-11-24T06:31:51.038Z,7.77
2022-11-24T06:32:50.975Z,7.81
2022-11-24T06:33:50.962Z,7.82
2022-11-24T06:34:50.953Z,7.82
2022-11-24T06:35:50.937Z,7.81
2022-11-24T06:36:50.941Z,7.77
2022-11-24T06:37:50.917Z,7.77
2022-11-24T06:38:50.907Z,7.76
2022-11-24T06:39:50.895Z,7.74
2022-11-24T06:40:50.887Z,7.76
2022-11-24T06:41:50.885Z,7.76
2022-11-24T06:42:50.865Z,7.74
2022-11-24T06:43:50.850Z,7.71
2022-11-24T06:44:50.842Z,7.69
2022-11-24T06:45:50.855Z,7.66
2022-11-24T06:46:50.837Z,7.60
2022-11-24T06:47:50.806Z,7.57
2022-11-24T06:48:50.798Z,7.54
2022-11-24T06:49:50.784Z,7.51
2022-11-24T06:50:50.776Z,7.51
2022-11-24T06:51:50.772Z,7.48
2022-11-24T06:52:50.756Z,7.45
2022-11-24T06:53:50.741Z,7.41
2022-11-24T06:54:50.735Z,7.41
2022-11-24T06:55:50.719Z,7.39
2022-11-24T06:56:50.728Z,7.41
2022-11-24T06:57:50.694Z,7.42
2022-11-24T06:58:50.688Z,7.45
2022-11-24T06:59:50.702Z,7.48
2022-11-24T07:00:50.707Z,7.50
2022-11-24T07:01:50.663Z,7.52
2022-11-24T07:02:50.693Z,7.55
2022-11-24T07:03:50.633Z,7.58
2022-11-24T07:04:50.623Z,7.60
2022-11-24T07:05:50.608Z,7.60
2022-11-24T07:06:50.613Z,7.66
2022-11-24T07:07:51.123Z,7.66
2022-11-24T07:08:50.577Z,7.69
2022-11-24T07:09:50.562Z,7.70
2022-11-24T07:10:50.560Z,7.70
2022-11-24T07:11:50.552Z,7.73
2022-11-24T07:12:50.539Z,7.74
2022-11-24T07:13:54.978Z,7.77
2022-11-24T07:14:50.524Z,7.77
2022-11-24T07:15:50.499Z,7.81
2022-11-24T07:16:50.539Z,7.82
2022-11-24T07:17:50.477Z,7.84
2022-11-24T07:18:50.481Z,7.85
2022-11-24T07:19:50.453Z,7.86
2022-11-24T07:20:50.448Z,7.85
2022-11-24T07:21:50.431Z,7.88
2022-11-24T07:22:50.425Z,7.88
2022-11-24T07:23:50.419Z,7.89
2022-11-24T07:24:50.402Z,7.91
2022-11-24T07:25:50.390Z,7.89
2022-11-24T07:26:50.380Z,7.89
2022-11-24T07:27:50.376Z,7.89
2022-11-24T07:28:50.367Z,7.92
2022-11-24T07:29:50.343Z,7.92
2022-11-24T07:30:50.355Z,7.94
2022-11-24T07:31:50.355Z,7.95
2022-11-24T07:32:50.316Z,7.94
2022-11-24T07:33:50.311Z,7.95
2022-11-24T07:34:50.293Z,7.96
2022-11-24T07:35:50.277Z,7.96
2022-11-24T07:36:50.271Z,7.99
2022-11-24T07:37:50.971Z,8.00
2022-11-24T07:38:50.340Z,8.02
2022-11-24T07:39:50.232Z,8.02
2022-11-24T07:40:50.226Z,8.02
2022-11-24T07:41:50.209Z,8.02
2022-11-24T07:42:50.203Z,8.02
2022-11-24T07:43:50.200Z,8.03
2022-11-24T07:44:50.185Z,8.04
2022-11-24T07:45:50.237Z,8.04
2022-11-24T07:46:50.160Z,8.06
2022-11-24T07:47:50.142Z,8.07
2022-11-24T07:48:50.151Z,8.09
2022-11-24T07:49:50.122Z,8.10
2022-11-24T07:50:55.460Z,8.13
2022-11-24T07:51:50.109Z,8.13
2022-11-24T07:52:50.096Z,8.17
2022-11-24T07:53:50.091Z,8.14
2022-11-24T07:54:50.072Z,8.18
2022-11-24T07:55:50.078Z,8.20
2022-11-24T07:56:50.060Z,8.21
2022-11-24T07:57:50.042Z,8.21
2022-11-24T07:58:52.995Z,8.22
2022-11-24T07:59:50.013Z,8.22
2022-11-24T08:00:50.004Z,8.22
2022-11-24T08:01:50.049Z,8.22
2022-11-24T08:02:49.984Z,8.25
2022-11-24T08:03:50.031Z,8.28
2022-11-24T08:04:49.960Z,8.29
2022-11-24T08:06:16.025Z,8.31
2022-11-24T08:06:49.960Z,8.29
2022-11-24T08:07:49.963Z,8.31
2022-11-24T08:08:49.926Z,8.29
2022-11-24T08:09:49.907Z,8.29
2022-11-24T08:10:49.915Z,8.31
2022-11-24T08:11:49.883Z,8.31
2022-11-24T08:12:49.882Z,8.31
2022-11-24T08:13:49.875Z,8.32
2022-11-24T08:14:49.853Z,8.36
2022-11-24T08:15:49.837Z,8.32
2022-11-24T08:16:49.889Z,8.36
2022-11-24T08:17:49.814Z,8.36
2022-11-24T08:18:49.822Z,8.39
2022-11-24T08:19:49.792Z,8.40
2022-11-24T08:20:49.789Z,8.40
2022-11-24T08:21:49.770Z,8.43
2022-11-24T08:22:49.764Z,8.42
2022-11-24T08:23:49.761Z,8.46
2022-11-24T08:24:49.744Z,8.47
2022-11-24T08:25:54.167Z,8.47
2022-11-24T08:26:49.726Z,8.47
2022-11-24T08:27:49.703Z,8.47
2022-11-24T08:28:49.710Z,8.47
2022-11-24T08:29:49.686Z,8.49
2022-11-24T08:30:49.676Z,8.52
2022-11-24T08:31:49.761Z,8.55
2022-11-24T08:32:49.653Z,8.57
2022-11-24T08:33:49.649Z,8.60
2022-11-24T08:34:49.634Z,8.60
2022-11-24T08:35:49.680Z,8.63
2022-11-24T08:36:49.609Z,8.64
2022-11-24T08:37:49.596Z,8.67
2022-11-24T08:38:49.600Z,8.68
2022-11-24T08:39:49.571Z,8.67
2022-11-24T08:40:49.568Z,8.65
2022-11-24T08:41:49.550Z,8.65
2022-11-24T08:42:49.544Z,8.67
2022-11-24T08:43:49.551Z,8.67
2022-11-24T08:44:49.522Z,8.67
2022-11-24T08:45:49.546Z,8.70
2022-11-24T08:46:49.506Z,8.70
2022-11-24T08:47:49.486Z,8.71
2022-11-24T08:48:51.101Z,8.71
2022-11-24T08:49:49.474Z,8.73
2022-11-24T08:50:49.456Z,8.75
2022-11-24T08:51:49.442Z,8.75
2022-11-24T08:52:49.436Z,8.73
2022-11-24T08:53:49.419Z,8.70
2022-11-24T08:54:49.426Z,8.71
2022-11-24T08:55:49.405Z,8.71
2022-11-24T08:56:49.388Z,8.71
2022-11-24T08:57:49.381Z,8.71
2022-11-24T08:58:50.129Z,8.71
2022-11-24T08:59:49.373Z,8.68
2022-11-24T09:00:49.343Z,8.67
2022-11-24T09:01:49.525Z,8.68
2022-11-24T09:02:49.324Z,8.70
2022-11-24T09:03:50.948Z,8.71
2022-11-24T09:04:49.352Z,8.70
2022-11-24T09:05:52.158Z,8.68
2022-11-24T09:06:49.280Z,8.68
2022-11-24T09:07:49.341Z,8.70
2022-11-24T09:08:50.059Z,8.70
2022-11-24T09:09:49.256Z,8.71
2022-11-24T09:10:49.241Z,8.73
2022-11-24T09:11:49.223Z,8.75
2022-11-24T09:12:49.222Z,8.75
2022-11-24T09:13:49.204Z,8.75
2022-11-24T09:14:49.217Z,8.76
2022-11-24T09:15:49.179Z,8.79
2022-11-24T09:16:49.242Z,8.79
2022-11-24T09:17:49.157Z,8.76
2022-11-24T09:18:49.775Z,8.76
2022-11-24T09:19:49.147Z,8.76
2022-11-24T09:20:49.130Z,8.78
2022-11-24T09:21:49.117Z,8.79
2022-11-24T09:22:49.108Z,8.79
2022-11-24T09:23:49.110Z,8.79
2022-11-24T09:24:49.106Z,8.79
2022-11-24T09:25:49.071Z,8.79
2022-11-24T09:26:49.070Z,8.82
2022-11-24T09:27:49.046Z,8.82
2022-11-24T09:28:49.069Z,8.82
2022-11-24T09:29:49.036Z,8.82
2022-11-24T09:30:49.052Z,8.82
2022-11-24T09:31:49.007Z,8.85
2022-11-24T09:32:48.997Z,8.86
2022-11-24T09:33:48.985Z,8.86
2022-11-24T09:34:48.983Z,8.86
2022-11-24T09:35:48.959Z,8.88
2022-11-24T09:36:48.955Z,8.89
2022-11-24T09:37:48.938Z,8.89
2022-11-24T09:38:48.930Z,8.89
2022-11-24T09:39:48.927Z,8.91
2022-11-24T09:40:48.910Z,8.93
2022-11-24T09:41:48.895Z,8.93
2022-11-24T09:42:53.356Z,8.96
2022-11-24T09:43:48.875Z,8.94
2022-11-24T09:44:48.876Z,8.96
2022-11-24T09:46:05.162Z,8.94
2022-11-24T09:46:48.883Z,8.93
2022-11-24T09:47:48.837Z,8.91
2022-11-24T09:48:48.824Z,8.89
2022-11-24T09:49:51.439Z,8.91
2022-11-24T09:50:48.799Z,8.93
2022-11-24T09:51:48.787Z,8.91
2022-11-24T09:52:48.778Z,8.91
2022-11-24T09:53:48.761Z,8.91
2022-11-24T09:54:48.775Z,8.89
2022-11-24T09:55:48.741Z,8.89
2022-11-24T09:56:48.736Z,8.86
2022-11-24T09:57:48.731Z,8.85
2022-11-24T09:58:48.840Z,8.80
2022-11-24T09:59:48.705Z,8.78
2022-11-24T10:00:48.689Z,8.78
2022-11-24T10:01:48.781Z,8.75
2022-11-24T10:02:48.672Z,8.71
2022-11-24T10:03:48.678Z,8.71
2022-11-24T10:04:48.718Z,8.70
2022-11-24T10:05:48.657Z,8.73
2022-11-24T10:06:48.628Z,8.76
2022-11-24T10:07:48.678Z,8.76
2022-11-24T10:08:48.719Z,8.78
2022-11-24T10:09:48.601Z,8.78
2022-11-24T10:10:48.592Z,8.76
2022-11-24T10:11:48.574Z,8.76
2022-11-24T10:12:48.560Z,8.75
2022-11-24T10:13:48.544Z,8.78
2022-11-24T10:14:48.549Z,8.79
2022-11-24T10:15:48.530Z,8.78
2022-11-24T10:16:48.969Z,8.80
2022-11-24T10:17:48.500Z,8.80
2022-11-24T10:18:49.181Z,8.82
2022-11-24T10:19:48.489Z,8.82
2022-11-24T10:20:48.523Z,8.83
2022-11-24T10:21:48.457Z,8.86
2022-11-24T10:22:48.448Z,8.89
2022-11-24T10:23:48.437Z,8.96
2022-11-24T10:24:48.427Z,8.97
2022-11-24T10:25:48.422Z,8.94
2022-11-24T10:26:48.451Z,8.94
2022-11-24T10:27:48.390Z,8.94
2022-11-24T10:28:48.382Z,8.94
2022-11-24T10:29:48.367Z,8.94
2022-11-24T10:30:48.396Z,8.94
2022-11-24T10:31:48.347Z,8.94
2022-11-24T10:32:48.345Z,8.97
2022-11-24T10:33:48.332Z,8.97
2022-11-24T10:34:48.317Z,9.00
2022-11-24T10:35:48.314Z,8.98
2022-11-24T10:36:48.293Z,8.98
2022-11-24T10:37:48.281Z,8.97
2022-11-24T10:38:48.274Z,8.94
2022-11-24T10:39:48.259Z,8.91
2022-11-24T10:40:56.983Z,8.85
2022-11-24T10:41:48.242Z,8.78
2022-11-24T10:42:48.240Z,8.76
2022-11-24T10:43:48.212Z,8.73
2022-11-24T10:44:48.207Z,8.68
2022-11-24T10:45:48.293Z,8.65
2022-11-24T10:46:48.251Z,8.63
2022-11-24T10:47:48.177Z,8.61
2022-11-24T10:48:49.679Z,8.61
2022-11-24T10:49:48.147Z,8.63
2022-11-24T10:50:48.154Z,8.64
2022-11-24T10:51:48.128Z,8.70
2022-11-24T10:52:48.121Z,8.76
2022-11-24T10:53:48.105Z,8.85
2022-11-24T10:54:48.099Z,8.93
2022-11-24T10:55:48.092Z,9.01
2022-11-24T10:56:48.079Z,9.10
2022-11-24T10:57:48.061Z,9.22
2022-11-24T10:58:48.289Z,9.31
2022-11-24T10:59:48.037Z,9.37
2022-11-24T11:00:48.041Z,9.38
2022-11-24T11:01:48.128Z,9.37
2022-11-24T11:02:48.098Z,9.37
2022-11-24T11:03:48.008Z,9.35
2022-11-24T11:04:48.082Z,9.38
2022-11-24T11:05:47.982Z,9.38
2022-11-24T11:06:47.972Z,9.34
2022-11-24T11:07:48.006Z,9.35
2022-11-24T11:08:48.746Z,9.35
2022-11-24T11:09:47.928Z,9.34
2022-11-24T11:10:47.933Z,9.32
2022-11-24T11:11:47.908Z,9.35
2022-11-24T11:12:47.931Z,9.35
2022-11-24T11:13:47.884Z,9.35
2022-11-24T11:14:47.878Z,9.34
2022-11-24T11:15:47.945Z,9.32
2022-11-24T11:16:47.858Z,9.24
2022-11-24T11:17:47.839Z,9.23
2022-11-24T11:18:47.834Z,9.22
2022-11-24T11:19:53.215Z,9.23
2022-11-24T11:20:47.830Z,9.22
2022-11-24T11:21:47.800Z,9.20
2022-11-24T11:22:47.792Z,9.20
2022-11-24T11:23:47.777Z,9.24
2022-11-24T11:24:47.772Z,9.24
2022-11-24T11:25:47.761Z,9.27
2022-11-24T11:26:47.745Z,9.32
2022-11-24T11:27:47.738Z,9.37
2022-11-24T11:28:48.410Z,9.41
2022-11-24T11:34:02.963Z,9.40
2022-11-24T11:34:14.466Z,9.41
2022-11-24T11:34:30.137Z,9.45
2022-11-24T11:35:18.350Z,9.42
2022-11-24T11:36:18.346Z,9.44
2022-11-24T11:37:18.331Z,9.49
2022-11-24T11:38:18.310Z,9.48
2022-11-24T11:39:18.303Z,9.52
2022-11-24T11:40:18.285Z,9.52
2022-11-24T11:41:18.286Z,9.55
2022-11-24T11:42:45.321Z,9.55
2022-11-24T11:43:18.263Z,9.52
2022-11-24T11:44:18.239Z,9.53
2022-11-24T11:45:18.311Z,9.55
2022-11-24T11:46:18.477Z,9.53
2022-11-24T11:47:18.212Z,9.49
2022-11-24T11:48:18.196Z,9.53
2022-11-24T11:49:18.197Z,9.55
2022-11-24T11:50:18.226Z,9.56
2022-11-24T11:51:25.579Z,9.59
2022-11-24T11:52:18.162Z,9.62
2022-11-24T11:53:18.146Z,9.63
2022-11-24T11:54:18.129Z,9.67
2022-11-24T11:55:18.120Z,9.67
2022-11-24T11:56:18.116Z,9.70
2022-11-24T11:57:18.155Z,9.73
2022-11-24T11:58:18.085Z,9.73
2022-11-24T11:59:18.077Z,9.75
2022-11-24T12:00:18.061Z,9.77
2022-11-24T12:01:18.077Z,9.78
2022-11-24T12:02:18.121Z,9.75
2022-11-24T12:03:18.107Z,9.78
2022-11-24T12:04:18.155Z,9.75
2022-11-24T12:05:18.138Z,9.75
2022-11-24T12:06:18.006Z,9.74
2022-11-24T12:07:18.017Z,9.74
2022-11-24T12:08:21.321Z,9.74
2022-11-24T12:09:20.707Z,9.75
2022-11-24T12:10:17.955Z,9.75
2022-11-24T12:11:17.967Z,9.75
2022-11-24T12:12:17.932Z,9.78
2022-11-24T12:13:17.922Z,9.83
2022-11-24T12:14:17.911Z,9.86
2022-11-24T12:15:17.896Z,9.85
2022-11-24T12:16:17.926Z,9.81
2022-11-24T12:17:17.882Z,9.83
2022-11-24T12:18:40.631Z,9.86
2022-11-24T12:19:17.861Z,9.92
2022-11-24T12:20:17.872Z,9.96
2022-11-24T12:21:22.853Z,9.99
2022-11-24T12:22:17.837Z,9.98
2022-11-24T12:23:17.809Z,9.96
2022-11-24T12:24:17.841Z,9.99
2022-11-24T12:25:17.787Z,9.99
2022-11-24T12:26:17.784Z,10.04
2022-11-24T12:27:22.549Z,10.06
2022-11-24T12:28:17.786Z,10.06
2022-11-24T12:29:17.741Z,10.07
2022-11-24T12:30:17.735Z,10.02
2022-11-24T12:31:17.751Z,9.99
2022-11-24T12:32:18.078Z,9.99
2022-11-24T12:33:17.701Z,10.01
2022-11-24T12:34:17.691Z,10.01
2022-11-24T12:35:17.675Z,9.99
2022-11-24T12:36:17.668Z,9.98
2022-11-24T12:37:17.663Z,9.99
2022-11-24T12:38:17.648Z,10.01
2022-11-24T12:39:17.659Z,10.02
2022-11-24T12:40:17.641Z,10.02
2022-11-24T12:41:40.502Z,10.04
2022-11-24T12:42:17.620Z,10.07
2022-11-24T12:43:17.589Z,10.09
2022-11-24T12:44:17.580Z,10.14
2022-11-24T12:45:17.563Z,10.17
2022-11-24T12:46:17.812Z,10.20
2022-11-24T12:47:17.554Z,10.25
2022-11-24T12:48:17.535Z,10.29
2022-11-24T12:49:17.523Z,10.29
2022-11-24T12:50:17.513Z,10.26
2022-11-24T12:51:17.496Z,10.26
2022-11-24T12:52:17.500Z,10.24
2022-11-24T12:53:17.477Z,10.11
2022-11-24T12:54:17.467Z,10.04
2022-11-24T12:55:17.453Z,9.98
2022-11-24T12:56:17.450Z,9.89
2022-11-24T12:57:17.439Z,9.83
2022-11-24T12:58:17.423Z,9.78
2022-11-24T12:59:17.410Z,9.75
2022-11-24T13:00:17.402Z,9.74
2022-11-24T13:01:17.398Z,9.71
2022-11-24T13:02:17.523Z,9.70
2022-11-24T13:03:17.567Z,9.70
2022-11-24T13:04:17.463Z,9.70
2022-11-24T13:05:17.339Z,9.68
2022-11-24T13:06:17.347Z,9.65
2022-11-24T13:07:17.368Z,9.62
2022-11-24T13:08:17.313Z,9.65
2022-11-24T13:09:17.346Z,9.60
2022-11-24T13:10:17.286Z,9.62
2022-11-24T13:11:17.279Z,9.65
2022-11-24T13:12:17.273Z,9.68
2022-11-24T13:13:17.257Z,9.71
2022-11-24T13:14:17.239Z,9.73
2022-11-24T13:15:43.495Z,9.73
2022-11-24T13:18:17.231Z,9.74
2022-11-24T13:19:17.198Z,9.77
2022-11-24T13:20:17.173Z,9.77
2022-11-24T13:21:17.169Z,9.80
2022-11-24T13:22:17.161Z,9.80